Time;durP1;ratioP1;P1;durP2;ratioP2;P2;SDS_P1;SDS_P2;PMS_P1;PMS_P2;Temp;Humidity;BMP_temperature;BMP_pressure;BME280_temperature;BME280_humidity;BME280_pressure;Samples;Min_cycle;Max_cycle;Signal;HPM_P1;HPM_P2
2021/03/26 00:00:46;;;;;;;16.25;6.20;;;9.30;99.90;;;;;;5013247;28;20120;-61
2021/03/26 00:03:17;;;;;;;21.77;6.55;;;9.10;99.90;;;;;;4985452;28;20037;-62
2021/03/26 00:05:45;;;;;;;19.17;7.10;;;9.10;99.90;;;;;;5032867;28;20049;-62
2021/03/26 00:08:14;;;;;;;20.50;6.05;;;9.00;99.90;;;;;;5033013;28;20037;-62
2021/03/26 00:10:41;;;;;;;13.05;6.32;;;9.10;99.90;;;;;;5014885;28;20033;-61
2021/03/26 00:13:07;;;;;;;19.35;6.50;;;9.20;99.90;;;;;;5032932;28;20030;-62
2021/03/26 00:15:35;;;;;;;14.77;5.32;;;9.20;99.90;;;;;;5015254;28;20112;-61
2021/03/26 00:18:02;;;;;;;16.33;6.68;;;9.20;99.90;;;;;;5032613;28;20031;-62
2021/03/26 00:20:28;;;;;;;14.13;6.78;;;9.20;99.90;;;;;;5032851;28;20033;-62
2021/03/26 00:22:54;;;;;;;18.15;6.57;;;9.20;99.90;;;;;;5032651;28;20033;-62
2021/03/26 00:25:20;;;;;;;12.00;4.93;;;9.10;99.90;;;;;;5014976;28;20033;-62
2021/03/26 00:27:46;;;;;;;13.90;5.85;;;9.00;99.90;;;;;;5032575;28;20044;-62
2021/03/26 00:30:13;;;;;;;15.52;5.28;;;8.90;99.90;;;;;;5032755;28;20021;-62
2021/03/26 00:32:40;;;;;;;9.80;5.03;;;8.90;99.90;;;;;;5030692;28;20405;-62
2021/03/26 00:35:13;;;;;;;16.50;5.75;;;8.50;99.90;;;;;;5012661;28;20030;-62
2021/03/26 00:37:40;;;;;;;15.35;5.38;;;8.10;99.90;;;;;;5012730;28;20033;-62
2021/03/26 00:40:13;;;;;;;20.52;5.05;;;7.90;99.90;;;;;;5012289;28;20069;-62
2021/03/26 00:42:39;;;;;;;17.20;6.82;;;8.00;99.90;;;;;;5012709;28;20045;-62
2021/03/26 00:45:09;;;;;;;13.10;5.05;;;8.20;99.90;;;;;;4994901;28;20084;-61
2021/03/26 00:47:34;;;;;;;11.40;5.13;;;8.40;99.90;;;;;;5012568;28;20026;-61
2021/03/26 00:50:00;;;;;;;13.13;5.20;;;8.50;99.90;;;;;;5012718;28;20075;-62
2021/03/26 00:52:26;;;;;;;11.48;5.22;;;8.70;99.90;;;;;;5012065;28;20474;-61
2021/03/26 00:54:52;;;;;;;12.50;4.85;;;8.70;99.90;;;;;;5012525;28;20037;-61
2021/03/26 00:57:18;;;;;;;26.60;6.30;;;8.80;99.90;;;;;;5012453;28;20034;-61
2021/03/26 00:59:43;;;;;;;12.57;5.78;;;8.70;99.90;;;;;;5012571;28;20044;-62
2021/03/26 01:02:09;;;;;;;13.68;5.45;;;8.80;99.90;;;;;;4994858;28;20490;-61
2021/03/26 01:04:35;;;;;;;12.70;5.45;;;8.80;99.90;;;;;;4995039;28;20172;-62
2021/03/26 01:07:03;;;;;;;14.32;5.53;;;8.80;99.90;;;;;;5012406;28;20034;-63
2021/03/26 01:09:29;;;;;;;13.10;5.28;;;8.80;99.90;;;;;;5012657;28;20122;-61
2021/03/26 01:11:55;;;;;;;14.27;5.68;;;8.80;99.90;;;;;;5012377;28;20151;-61
2021/03/26 01:14:22;;;;;;;17.02;5.28;;;8.70;99.90;;;;;;5012467;28;20026;-61
2021/03/26 01:16:49;;;;;;;14.57;6.43;;;8.60;99.90;;;;;;5012265;28;20080;-61
2021/03/26 01:19:17;;;;;;;11.63;5.50;;;8.40;99.90;;;;;;5012120;28;20034;-61
2021/03/26 01:21:43;;;;;;;14.00;5.72;;;8.30;99.90;;;;;;5012025;28;20030;-62
2021/03/26 01:24:15;;;;;;;15.05;5.97;;;8.10;99.90;;;;;;5012466;28;20041;-62
2021/03/26 01:26:42;;;;;;;16.17;6.22;;;7.80;99.90;;;;;;5012084;28;20044;-61
2021/03/26 01:29:08;;;;;;;18.00;6.25;;;7.60;99.90;;;;;;4994624;28;20479;-61
2021/03/26 01:31:34;;;;;;;19.92;6.43;;;7.60;99.90;;;;;;5012454;28;20030;-61
2021/03/26 01:34:03;;;;;;;15.63;6.28;;;7.60;99.90;;;;;;5012196;28;20026;-61
2021/03/26 01:36:28;;;;;;;16.50;5.82;;;7.70;99.90;;;;;;5012013;28;20100;-61
2021/03/26 01:38:54;;;;;;;16.35;5.82;;;7.70;99.90;;;;;;5012003;28;20041;-62
2021/03/26 01:41:23;;;;;;;17.23;5.95;;;7.70;99.90;;;;;;4994831;28;20030;-61
2021/03/26 01:43:49;;;;;;;13.90;6.25;;;7.60;99.90;;;;;;5011940;28;20475;-61
2021/03/26 01:46:17;;;;;;;16.73;6.53;;;7.40;99.90;;;;;;5012091;28;20041;-61
2021/03/26 01:48:51;;;;;;;12.32;5.72;;;7.30;99.90;;;;;;5014783;28;20030;-61
2021/03/26 01:51:30;;;;;;;11.30;5.88;;;7.30;99.90;;;;;;5005203;28;20062;-61
2021/03/26 01:53:57;;;;;;;12.88;6.90;;;7.30;99.90;;;;;;5017956;28;20029;-61
2021/03/26 01:56:24;;;;;;;17.90;6.65;;;7.20;99.90;;;;;;5017957;28;20061;-61
2021/03/26 01:58:50;;;;;;;14.63;7.20;;;7.10;99.90;;;;;;5035463;28;20390;-61
2021/03/26 02:01:25;;;;;;;13.95;7.07;;;7.10;99.90;;;;;;5012792;28;20036;-61
2021/03/26 02:04:01;;;;;;;17.38;7.40;;;7.10;99.90;;;;;;4978667;28;20393;-61
2021/03/26 02:06:54;;;;;;;18.63;7.22;;;7.10;99.90;;;;;;5010105;28;20034;-61
2021/03/26 02:09:29;;;;;;;20.40;8.07;;;7.00;99.90;;;;;;5000124;28;20029;-61
2021/03/26 02:12:08;;;;;;;16.45;7.15;;;7.00;99.90;;;;;;4998638;28;20033;-61
2021/03/26 02:14:57;;;;;;;15.25;7.10;;;6.90;99.90;;;;;;5015543;28;20034;-61
2021/03/26 02:17:31;;;;;;;18.52;7.55;;;6.90;99.90;;;;;;5015362;28;20030;-62
2021/03/26 02:20:09;;;;;;;16.55;8.05;;;6.80;99.90;;;;;;5014765;28;20032;-61
2021/03/26 02:22:36;;;;;;;13.82;7.55;;;6.80;99.90;;;;;;5015335;28;20509;-61
2021/03/26 02:25:13;;;;;;;14.90;7.25;;;6.80;99.90;;;;;;4997679;28;20041;-61
2021/03/26 02:27:39;;;;;;;17.80;7.43;;;6.70;99.90;;;;;;4981930;28;20026;-61
2021/03/26 02:30:27;;;;;;;12.43;6.97;;;6.70;99.90;;;;;;5014781;28;20045;-62
2021/03/26 02:32:54;;;;;;;17.02;7.60;;;6.70;99.90;;;;;;5014752;28;20037;-61
2021/03/26 02:35:34;;;;;;;21.48;8.05;;;6.70;99.90;;;;;;4986464;28;20470;-61
2021/03/26 02:38:28;;;;;;;13.73;7.25;;;6.60;99.90;;;;;;5016461;28;20362;-61
2021/03/26 02:41:38;;;;;;;15.13;8.30;;;6.60;99.90;;;;;;5000297;28;20045;-61
2021/03/26 02:44:46;;;;;;;15.50;7.10;;;6.50;99.90;;;;;;4972307;28;20044;-62
2021/03/26 02:47:35;;;;;;;17.77;7.90;;;6.50;99.90;;;;;;5033976;28;20037;-62
2021/03/26 02:50:13;;;;;;;21.80;9.25;;;6.50;99.90;;;;;;5017219;28;20036;-62
2021/03/26 02:53:11;;;;;;;13.40;7.88;;;6.60;99.90;;;;;;5017288;28;20033;-61
2021/03/26 02:55:43;;;;;;;18.05;8.95;;;6.60;99.90;;;;;;4983788;28;20120;-61
2021/03/26 02:58:29;;;;;;;18.52;8.93;;;6.60;99.90;;;;;;5034310;28;20030;-61
2021/03/26 03:01:44;;;;;;;14.90;7.35;;;6.60;99.90;;;;;;5034299;28;20037;-61
2021/03/26 03:04:18;;;;;;;21.80;7.50;;;6.60;99.90;;;;;;5034059;28;20033;-61
2021/03/26 03:06:52;;;;;;;14.55;8.27;;;6.60;99.90;;;;;;5016964;28;20045;-61
2021/03/26 03:09:20;;;;;;;15.18;7.45;;;6.60;99.90;;;;;;4997611;28;20026;-62
2021/03/26 03:12:16;;;;;;;16.80;8.50;;;6.60;99.90;;;;;;5014178;28;20029;-62
2021/03/26 03:14:51;;;;;;;22.00;7.60;;;6.60;99.90;;;;;;5014315;28;20486;-61
2021/03/26 03:17:43;;;;;;;20.10;8.60;;;6.60;99.90;;;;;;4996858;28;20037;-61
2021/03/26 03:20:39;;;;;;;17.83;7.43;;;6.60;99.90;;;;;;4961745;28;20041;-61
2021/03/26 03:23:15;;;;;;;18.15;8.63;;;6.60;99.90;;;;;;4996159;28;20179;-61
2021/03/26 03:25:42;;;;;;;16.70;7.95;;;6.60;99.90;;;;;;4996514;28;20557;-61
2021/03/26 03:28:20;;;;;;;19.30;8.85;;;6.60;99.90;;;;;;4995410;28;20034;-61
2021/03/26 03:31:02;;;;;;;18.30;8.95;;;6.60;99.90;;;;;;5012614;28;20394;-62
2021/03/26 03:34:01;;;;;;;17.73;8.85;;;6.60;99.90;;;;;;4995415;28;20060;-61
2021/03/26 03:36:46;;;;;;;15.57;7.97;;;6.60;99.90;;;;;;4997682;28;20030;-62
2021/03/26 03:39:38;;;;;;;25.42;9.02;;;6.60;99.90;;;;;;5013232;28;20065;-61
2021/03/26 03:42:55;;;;;;;18.65;9.00;;;6.50;99.90;;;;;;4996662;28;20042;-62
2021/03/26 03:45:43;;;;;;;19.58;9.10;;;6.50;99.90;;;;;;5013511;28;20040;-61
2021/03/26 03:48:15;;;;;;;20.10;10.30;;;6.60;99.90;;;;;;4997669;28;20545;-62
2021/03/26 03:51:09;;;;;;;16.75;9.38;;;6.50;99.90;;;;;;4996190;28;20095;-61
2021/03/26 03:53:48;;;;;;;19.48;8.48;;;6.50;99.90;;;;;;5013274;28;20048;-61
2021/03/26 03:56:30;;;;;;;16.88;8.55;;;6.50;99.90;;;;;;4996621;28;20030;-61
2021/03/26 03:59:25;;;;;;;17.95;8.93;;;6.50;99.90;;;;;;4995608;28;20406;-61
2021/03/26 04:02:02;;;;;;;18.05;9.35;;;6.50;99.90;;;;;;4988893;28;20034;-61
2021/03/26 04:04:44;;;;;;;18.40;9.70;;;6.40;99.90;;;;;;4996068;28;20061;-62
2021/03/26 04:07:18;;;;;;;17.10;8.93;;;6.40;99.90;;;;;;4995387;28;20044;-62
2021/03/26 04:09:55;;;;;;;18.42;9.57;;;6.40;99.90;;;;;;4995360;28;20391;-62
2021/03/26 04:12:28;;;;;;;17.38;8.73;;;6.30;99.90;;;;;;4980113;28;20119;-62
2021/03/26 04:15:20;;;;;;;18.05;9.02;;;6.30;99.90;;;;;;4996203;28;20494;-62
2021/03/26 04:17:58;;;;;;;17.60;8.68;;;6.30;99.90;;;;;;5012875;28;20103;-62
2021/03/26 04:21:04;;;;;;;21.40;9.43;;;6.30;99.90;;;;;;5013121;28;20065;-61
2021/03/26 04:23:52;;;;;;;17.75;9.23;;;6.30;99.90;;;;;;4982730;28;20437;-62
2021/03/26 04:26:26;;;;;;;18.48;9.98;;;6.30;99.90;;;;;;4996715;28;20371;-62
2021/03/26 04:29:01;;;;;;;22.92;10.18;;;6.30;99.90;;;;;;5012392;28;20383;-61
2021/03/26 04:31:35;;;;;;;21.88;10.32;;;6.20;99.90;;;;;;4996264;28;20045;-62
2021/03/26 04:34:01;;;;;;;17.65;9.55;;;6.20;99.90;;;;;;5012753;28;20030;-62
2021/03/26 04:36:54;;;;;;;24.42;9.82;;;6.30;99.90;;;;;;5012575;28;20578;-62
2021/03/26 04:39:31;;;;;;;18.30;9.88;;;6.30;99.90;;;;;;4997370;28;20192;-62
2021/03/26 04:42:13;;;;;;;24.73;10.27;;;6.30;99.90;;;;;;4975237;28;20519;-61
2021/03/26 04:44:56;;;;;;;19.00;8.90;;;6.20;99.90;;;;;;4995967;28;20041;-61
2021/03/26 04:48:02;;;;;;;20.15;9.95;;;6.20;99.90;;;;;;5012465;28;20034;-63
2021/03/26 04:50:46;;;;;;;28.58;10.30;;;6.20;99.90;;;;;;5027180;28;20543;-63
2021/03/26 04:53:24;;;;;;;21.42;10.13;;;6.20;99.90;;;;;;5030527;28;20501;-63
2021/03/26 04:55:58;;;;;;;17.65;9.90;;;6.20;99.90;;;;;;5005353;28;20120;-63
2021/03/26 04:58:29;;;;;;;20.52;10.10;;;6.10;99.90;;;;;;5001483;28;20038;-62
2021/03/26 05:01:16;;;;;;;21.27;10.27;;;6.10;99.90;;;;;;5001883;28;20069;-63
2021/03/26 05:03:59;;;;;;;21.13;9.65;;;6.20;99.90;;;;;;5004794;28;20041;-63
2021/03/26 05:06:30;;;;;;;23.33;11.80;;;6.20;99.90;;;;;;5008189;28;20582;-64
2021/03/26 05:09:09;;;;;;;;;;;6.20;99.90;;;;;;5012833;28;20065;-63
2021/03/26 05:11:47;;;;;;;17.80;8.70;;;6.20;99.90;;;;;;5011405;28;19931;-64
2021/03/26 05:14:37;;;;;;;26.20;10.57;;;6.20;99.90;;;;;;5011300;28;20045;-64
2021/03/26 05:17:30;;;;;;;25.90;9.90;;;6.10;99.90;;;;;;5012390;28;20034;-63
2021/03/26 05:20:21;;;;;;;27.10;10.93;;;6.10;99.90;;;;;;5001115;28;20030;-63
2021/03/26 05:23:07;;;;;;;;;;;6.10;99.90;;;;;;4997023;28;20034;-64
2021/03/26 05:25:47;;;;;;;21.67;10.77;;;6.10;99.90;;;;;;5000047;28;19917;-63
2021/03/26 05:28:23;;;;;;;25.23;10.80;;;6.20;99.90;;;;;;5015694;28;20036;-63
2021/03/26 05:30:50;;;;;;;25.05;9.95;;;6.20;99.90;;;;;;5015072;28;20527;-64
2021/03/26 05:33:45;;;;;;;21.58;12.02;;;6.30;99.90;;;;;;5000306;28;20062;-64
2021/03/26 05:36:34;;;;;;;22.42;10.02;;;6.30;99.90;;;;;;4999711;28;20033;-63
2021/03/26 05:39:13;;;;;;;21.80;8.95;;;6.30;99.90;;;;;;4999062;28;20399;-65
2021/03/26 05:42:00;;;;;;;28.92;11.20;;;6.20;99.90;;;;;;4998188;28;20042;-65
2021/03/26 05:45:29;;;;;;;24.30;11.68;;;6.20;99.90;;;;;;5015994;28;20554;-65
2021/03/26 05:48:11;;;;;;;23.30;9.27;;;6.20;99.90;;;;;;4935575;29;20488;-65
2021/03/26 05:50:49;;;;;;;21.80;9.60;;;6.20;99.90;;;;;;5016803;28;20124;-64
2021/03/26 05:53:27;;;;;;;23.15;10.75;;;6.20;99.90;;;;;;5017763;28;20040;-65
2021/03/26 05:56:22;;;;;;;20.75;10.35;;;6.20;99.90;;;;;;5035235;28;20040;-64
2021/03/26 05:58:50;;;;;;;21.38;10.20;;;6.20;99.90;;;;;;5017790;28;20021;-65
2021/03/26 06:01:36;;;;;;;21.05;10.13;;;6.30;99.90;;;;;;5035193;28;20040;-64
2021/03/26 06:04:28;;;;;;;20.27;10.48;;;6.40;99.90;;;;;;5017317;28;20430;-65
2021/03/26 06:07:31;;;;;;;21.95;10.52;;;6.50;99.90;;;;;;5019201;28;20052;-66
2021/03/26 06:10:27;;;;;;;21.92;11.43;;;6.50;99.90;;;;;;5035186;28;20034;-69
2021/03/26 06:13:31;;;;;;;19.95;10.52;;;6.50;99.90;;;;;;5035343;28;20624;-65
2021/03/26 06:16:24;;;;;;;37.63;16.63;;;6.60;99.90;;;;;;4977366;28;20049;-64
2021/03/26 06:19:08;;;;;;;27.40;11.30;;;6.70;99.90;;;;;;5030486;28;20034;-63
2021/03/26 06:22:14;;;;;;;28.88;12.35;;;6.90;99.90;;;;;;5014618;28;20422;-63
2021/03/26 06:24:58;;;;;;;22.58;10.95;;;7.00;99.90;;;;;;5014731;28;20037;-64
2021/03/26 06:27:49;;;;;;;17.60;10.27;;;7.10;99.90;;;;;;5015086;28;20030;-64
2021/03/26 06:30:46;;;;;;;;;;;7.20;99.90;;;;;;5008271;28;20069;-65
2021/03/26 06:33:43;;;;;;;19.42;9.73;;;7.20;99.90;;;;;;5013653;28;20385;-63
2021/03/26 06:36:38;;;;;;;20.83;9.50;;;7.20;99.90;;;;;;5014323;28;20038;-64
2021/03/26 06:39:25;;;;;;;19.77;9.70;;;7.30;99.90;;;;;;5013798;28;20515;-64
2021/03/26 06:42:06;;;;;;;18.80;10.00;;;7.40;99.90;;;;;;5009121;28;20045;-64
2021/03/26 06:45:08;;;;;;;21.50;9.65;;;7.40;99.90;;;;;;5014107;28;20033;-65
2021/03/26 06:48:14;;;;;;;17.30;9.70;;;7.50;99.90;;;;;;5014768;28;20057;-64
2021/03/26 06:51:37;;;;;;;23.48;10.90;;;7.60;99.90;;;;;;4996356;28;20073;-64
2021/03/26 06:54:36;;;;;;;24.13;10.88;;;7.80;99.90;;;;;;5012167;28;20034;-64
2021/03/26 06:57:45;;;;;;;23.05;10.85;;;7.90;99.90;;;;;;5014178;28;20037;-65
2021/03/26 07:00:55;;;;;;;25.70;11.10;;;8.10;99.90;;;;;;4996544;28;20038;-64
2021/03/26 07:03:54;;;;;;;20.60;10.27;;;8.20;99.90;;;;;;5007366;28;20026;-64
2021/03/26 07:07:08;;;;;;;20.13;10.90;;;8.20;99.90;;;;;;5033665;28;20391;-65
2021/03/26 07:10:17;;;;;;;20.25;9.95;;;8.30;99.90;;;;;;5034143;28;20033;-64
2021/03/26 07:13:27;;;;;;;25.92;10.18;;;8.40;99.90;;;;;;5033992;28;20095;-64
2021/03/26 07:16:05;;;;;;;22.02;10.48;;;8.40;99.90;;;;;;5033911;28;20133;-64
2021/03/26 07:19:28;;;;;;;25.88;12.68;;;8.50;99.90;;;;;;5031687;28;20044;-64
2021/03/26 07:22:10;;;;;;;23.35;11.30;;;8.50;99.90;;;;;;5014082;28;20033;-66
2021/03/26 07:25:17;;;;;;;24.83;10.95;;;8.60;99.90;;;;;;5013901;28;20113;-64
2021/03/26 07:28:39;;;;;;;20.55;9.77;;;8.60;99.90;;;;;;5004588;28;20527;-64
2021/03/26 07:31:55;;;;;;;22.38;10.55;;;8.80;99.90;;;;;;4999435;28;20026;-64
2021/03/26 07:34:55;;;;;;;18.60;9.85;;;8.90;99.90;;;;;;5013677;28;20042;-64
2021/03/26 07:38:14;;;;;;;18.53;10.13;;;9.00;99.90;;;;;;4997882;28;20522;-64
2021/03/26 07:41:33;;;;;;;18.08;9.70;;;9.30;99.90;;;;;;5013270;28;20103;-65
2021/03/26 07:45:14;;;;;;;19.00;10.25;;;9.40;99.90;;;;;;5013627;28;20030;-64
2021/03/26 07:47:51;;;;;;;16.52;10.02;;;9.50;99.90;;;;;;4933546;29;20039;-64
2021/03/26 07:50:58;;;;;;;17.92;9.50;;;9.60;99.90;;;;;;4922369;29;20400;-64
2021/03/26 07:53:49;;;;;;;16.65;9.88;;;9.80;99.90;;;;;;4936163;29;20401;-63
2021/03/26 07:57:07;;;;;;;18.25;9.25;;;9.80;99.90;;;;;;4940177;29;20042;-63
2021/03/26 08:00:08;;;;;;;21.30;9.23;;;9.90;99.90;;;;;;4939937;29;20056;-63
2021/03/26 08:02:48;;;;;;;16.45;8.25;;;10.20;99.90;;;;;;4933109;29;20378;-63
2021/03/26 08:05:42;;;;;;;17.85;8.68;;;10.30;99.90;;;;;;4932851;29;20046;-64
2021/03/26 08:08:34;;;;;;;19.25;8.63;;;10.40;99.90;;;;;;4917109;29;20051;-64
2021/03/26 08:11:27;;;;;;;17.25;8.57;;;10.40;99.90;;;;;;4933312;29;20039;-64
2021/03/26 08:14:04;;;;;;;18.02;8.80;;;10.50;99.90;;;;;;4933341;29;20039;-63
2021/03/26 08:17:09;;;;;;;19.42;9.88;;;10.80;99.90;;;;;;4933238;29;20039;-64
2021/03/26 08:19:37;;;;;;;22.00;8.90;;;10.70;99.90;;;;;;5015031;28;20029;-63
2021/03/26 08:22:33;;;;;;;21.90;8.68;;;10.70;99.90;;;;;;5032773;28;20061;-64
2021/03/26 08:25:16;;;;;;;19.52;8.30;;;10.70;99.90;;;;;;5032652;28;20018;-64
2021/03/26 08:28:29;;;;;;;18.58;7.90;;;10.80;99.90;;;;;;5032481;28;20029;-63
2021/03/26 08:31:31;;;;;;;17.30;8.57;;;10.80;99.90;;;;;;5003884;28;20026;-63
2021/03/26 08:34:04;;;;;;;14.63;7.25;;;10.80;99.90;;;;;;5011795;28;20420;-63
2021/03/26 08:36:43;;;;;;;19.88;8.35;;;10.70;99.90;;;;;;5012890;28;20125;-63
2021/03/26 08:39:28;;;;;;;17.30;8.45;;;10.90;99.90;;;;;;5012529;28;20046;-63
2021/03/26 08:42:14;;;;;;;16.60;8.00;;;11.00;99.90;;;;;;5012740;28;20045;-63
2021/03/26 08:44:41;;;;;;;16.73;7.47;;;11.10;99.90;;;;;;4996031;28;20034;-63
2021/03/26 08:47:22;;;;;;;14.77;8.20;;;11.20;99.90;;;;;;4995166;28;20030;-63
2021/03/26 08:49:59;;;;;;;14.40;7.78;;;11.40;99.90;;;;;;5008251;28;20366;-63
2021/03/26 08:52:56;;;;;;;16.25;7.57;;;11.50;99.90;;;;;;4998804;28;20044;-62
2021/03/26 08:55:56;;;;;;;15.93;7.78;;;11.50;99.90;;;;;;5031926;28;20030;-64
2021/03/26 08:58:58;;;;;;;13.27;7.20;;;11.60;99.90;;;;;;5016296;28;20041;-63
2021/03/26 09:02:16;;;;;;;13.18;7.40;;;11.70;99.90;;;;;;5013598;28;20030;-63
2021/03/26 09:05:09;;;;;;;15.48;8.32;;;11.80;99.90;;;;;;5004179;28;20075;-63
2021/03/26 09:08:24;;;;;;;13.75;7.25;;;12.00;99.90;;;;;;5014740;28;20036;-63
2021/03/26 09:11:10;;;;;;;14.35;7.32;;;12.10;99.90;;;;;;5032329;28;20168;-64
2021/03/26 09:14:19;;;;;;;14.30;7.13;;;12.00;99.90;;;;;;5032245;28;20037;-63
2021/03/26 09:17:26;;;;;;;18.70;7.97;;;12.10;99.90;;;;;;5023265;28;20037;-63
2021/03/26 09:20:00;;;;;;;12.98;7.13;;;12.40;99.90;;;;;;4951274;28;20049;-66
2021/03/26 09:23:21;;;;;;;18.83;7.78;;;12.30;99.90;;;;;;4983317;28;20041;-63
2021/03/26 09:25:54;;;;;;;18.67;7.88;;;12.40;99.90;;;;;;5011090;28;20029;-63
2021/03/26 09:28:46;;;;;;;13.80;7.07;;;12.40;99.90;;;;;;4995107;28;20034;-63
2021/03/26 09:31:45;;;;;;;14.35;7.07;;;12.60;99.90;;;;;;5010897;28;20034;-63
2021/03/26 09:34:33;;;;;;;15.55;7.47;;;12.80;99.90;;;;;;4960862;28;20045;-64
2021/03/26 09:37:26;;;;;;;13.02;7.05;;;12.90;99.90;;;;;;5012357;28;20030;-63
2021/03/26 09:39:59;;;;;;;14.90;7.15;;;12.90;99.90;;;;;;4998282;28;20045;-63
2021/03/26 09:42:34;;;;;;;17.30;7.53;;;12.90;99.90;;;;;;5012186;28;20085;-63
2021/03/26 09:45:30;;;;;;;15.57;8.00;;;13.10;99.90;;;;;;4994925;28;20038;-63
2021/03/26 09:48:34;;;;;;;17.05;7.18;;;13.20;99.90;;;;;;4995049;28;20034;-63
2021/03/26 09:51:21;;;;;;;16.80;6.82;;;13.50;99.90;;;;;;4991491;28;20054;-63
2021/03/26 09:53:49;;;;;;;12.73;7.20;;;13.50;99.90;;;;;;4991441;28;20510;-63
2021/03/26 09:56:43;;;;;;;16.88;7.85;;;13.50;99.90;;;;;;4991015;28;20045;-64
2021/03/26 09:59:41;;;;;;;15.85;7.65;;;13.70;99.90;;;;;;4990768;28;20030;-64
2021/03/26 10:02:18;;;;;;;19.95;8.30;;;13.80;99.90;;;;;;4990934;28;20039;-63
2021/03/26 10:04:58;;;;;;;21.75;8.25;;;13.80;99.90;;;;;;4992089;28;20034;-63
2021/03/26 10:07:51;;;;;;;15.15;7.10;;;13.90;99.90;;;;;;4991088;28;20042;-63
2021/03/26 10:13:01;;;;;;;12.63;6.90;;;14.30;99.90;;;;;;4994860;28;20059;-63
2021/03/26 10:15:56;;;;;;;16.10;7.35;;;14.30;99.90;;;;;;4995498;28;20031;-63
2021/03/26 10:18:35;;;;;;;16.92;7.25;;;14.30;99.90;;;;;;4997395;28;20499;-63
2021/03/26 10:21:00;;;;;;;15.77;6.93;;;14.30;99.70;;;;;;5035042;28;20033;-63
2021/03/26 10:23:53;;;;;;;15.60;7.35;;;14.50;99.90;;;;;;5034978;28;20470;-64
2021/03/26 10:26:50;;;;;;;21.13;8.13;;;14.60;99.70;;;;;;5034758;28;20474;-63
2021/03/26 10:29:35;;;;;;;12.65;6.35;;;14.90;99.60;;;;;;5034648;28;20398;-63
2021/03/26 10:32:24;;;;;;;13.75;6.47;;;14.90;98.70;;;;;;5019011;28;20104;-64
2021/03/26 10:34:53;;;;;;;18.85;6.85;;;15.30;98.60;;;;;;5017218;28;20033;-64
2021/03/26 10:37:40;;;;;;;18.77;7.72;;;15.20;97.30;;;;;;5034460;28;20045;-64
2021/03/26 10:40:40;;;;;;;15.43;7.03;;;15.40;97.80;;;;;;5034309;28;20045;-64
2021/03/26 10:43:18;;;;;;;14.20;7.00;;;15.60;98.80;;;;;;4976220;28;20037;-64
2021/03/26 10:46:01;;;;;;;17.95;6.97;;;15.70;97.70;;;;;;5034513;28;20492;-65
2021/03/26 10:48:41;;;;;;;15.05;7.32;;;15.90;96.00;;;;;;5032659;28;20040;-64
2021/03/26 10:52:02;;;;;;;15.30;7.57;;;16.00;95.90;;;;;;4997845;28;20034;-64
2021/03/26 10:55:03;;;;;;;15.57;6.45;;;16.20;94.60;;;;;;5014589;28;20117;-64
2021/03/26 10:57:51;;;;;;;10.70;6.07;;;16.10;95.10;;;;;;5014311;28;20387;-65
2021/03/26 11:00:34;;;;;;;15.77;6.28;;;16.30;94.90;;;;;;5014456;28;20558;-64
2021/03/26 11:03:24;;;;;;;10.80;5.03;;;16.30;92.30;;;;;;4997855;28;20081;-64
2021/03/26 11:05:53;;;;;;;6.68;3.65;;;16.20;90.80;;;;;;4998775;28;20026;-63
2021/03/26 11:08:34;;;;;;;9.98;4.40;;;16.30;85.20;;;;;;4999502;28;20029;-66
2021/03/26 11:11:09;;;;;;;13.20;5.82;;;16.30;89.00;;;;;;5014322;28;20030;-63
2021/03/26 11:14:07;;;;;;;13.10;6.07;;;16.40;91.50;;;;;;5014041;28;20038;-64
2021/03/26 11:16:49;;;;;;;9.57;5.55;;;16.30;91.50;;;;;;5014100;28;20498;-64
2021/03/26 11:19:38;;;;;;;11.95;5.28;;;16.20;91.30;;;;;;5021713;28;20124;-64
2021/03/26 11:22:24;;;;;;;11.70;5.03;;;16.50;90.10;;;;;;5016887;28;20121;-65
2021/03/26 11:25:11;;;;;;;11.38;5.13;;;16.70;89.10;;;;;;5017430;28;20029;-64
2021/03/26 11:27:55;;;;;;;25.27;5.68;;;16.90;83.20;;;;;;5016302;28;20492;-63
2021/03/26 11:30:56;;;;;;;11.68;4.85;;;17.00;87.10;;;;;;5016239;28;20470;-63
2021/03/26 11:33:45;;;;;;;10.45;4.75;;;17.00;84.20;;;;;;5033378;28;20037;-64
2021/03/26 11:36:34;;;;;;;9.50;5.15;;;17.00;85.30;;;;;;5033229;28;20431;-63
2021/03/26 11:39:17;;;;;;;7.15;4.30;;;17.10;83.80;;;;;;4984786;28;20084;-63
2021/03/26 11:41:50;;;;;;;3.70;2.33;;;16.80;79.50;;;;;;5015890;28;20038;-64
2021/03/26 11:44:24;;;;;;;8.00;2.75;;;17.00;71.50;;;;;;5033269;28;20033;-64
2021/03/26 11:46:55;;;;;;;8.95;3.83;;;17.00;72.10;;;;;;5033027;28;20029;-64
2021/03/26 11:49:28;;;;;;;;;;;17.20;75.90;;;;;;4990804;28;20435;-63
2021/03/26 11:52:10;;;;;;;11.05;4.80;;;17.50;75.00;;;;;;5013502;28;20441;-63
2021/03/26 11:55:05;;;;;;;9.88;4.07;;;17.50;77.60;;;;;;5012310;28;20104;-63
2021/03/26 11:57:44;;;;;;;10.18;4.70;;;17.40;75.60;;;;;;5013372;28;20478;-64
2021/03/26 12:00:26;;;;;;;12.88;4.43;;;17.80;76.70;;;;;;5012340;28;20380;-64
2021/03/26 12:03:19;;;;;;;9.05;4.63;;;17.70;75.90;;;;;;5012418;28;20116;-63
2021/03/26 12:06:34;;;;;;;7.68;4.25;;;17.90;75.40;;;;;;5013015;28;20038;-63
2021/03/26 12:09:24;;;;;;;8.73;3.78;;;17.90;74.90;;;;;;5012357;28;20034;-63
2021/03/26 12:11:52;;;;;;;13.27;5.15;;;18.40;71.00;;;;;;5012259;28;20104;-64
2021/03/26 12:14:48;;;;;;;10.55;5.82;;;18.90;70.40;;;;;;5012688;28;20109;-64
2021/03/26 12:17:37;;;;;;;9.15;4.88;;;19.60;68.20;;;;;;5011883;28;20029;-64
2021/03/26 12:20:24;;;;;;;8.55;4.82;;;19.90;65.20;;;;;;5026369;28;20418;-62
2021/03/26 12:23:01;;;;;;;10.20;4.22;;;19.80;64.10;;;;;;5032531;28;20116;-62
2021/03/26 12:25:52;;;;;;;9.70;4.45;;;20.40;61.70;;;;;;5032256;28;20033;-63
2021/03/26 12:28:33;;;;;;;8.18;4.10;;;21.40;58.80;;;;;;5014805;28;20510;-62
2021/03/26 12:31:24;;;;;;;9.35;4.50;;;21.60;55.20;;;;;;5032402;28;20056;-63
2021/03/26 12:34:32;;;;;;;8.45;4.63;;;21.20;55.60;;;;;;5016342;28;20030;-63
2021/03/26 12:37:06;;;;;;;8.50;4.63;;;20.70;55.90;;;;;;5032544;28;20050;-62
2021/03/26 12:39:43;;;;;;;10.00;5.32;;;20.60;56.60;;;;;;5014635;28;20375;-63
2021/03/26 12:42:38;;;;;;;10.73;4.45;;;21.20;55.80;;;;;;5015520;28;20044;-63
2021/03/26 12:45:31;;;;;;;13.13;4.57;;;21.90;54.20;;;;;;5015434;28;20033;-63
2021/03/26 12:48:18;;;;;;;11.32;5.40;;;22.30;52.70;;;;;;4997057;28;20041;-63
2021/03/26 12:51:07;;;;;;;9.75;4.70;;;21.80;53.00;;;;;;4975877;28;20026;-63
2021/03/26 12:53:53;;;;;;;10.73;5.38;;;22.40;53.40;;;;;;4976702;28;20085;-63
2021/03/26 12:56:33;;;;;;;12.10;5.03;;;21.10;55.80;;;;;;4960338;28;20119;-63
2021/03/26 12:59:23;;;;;;;9.70;4.63;;;20.10;58.60;;;;;;4976724;28;20026;-63
2021/03/26 13:01:57;;;;;;;10.75;5.00;;;21.80;53.90;;;;;;4977407;28;20048;-63
2021/03/26 13:04:41;;;;;;;7.93;4.72;;;22.00;54.10;;;;;;4988552;28;20034;-63
2021/03/26 13:07:56;;;;;;;12.38;5.50;;;21.10;54.10;;;;;;5012578;28;20034;-62
2021/03/26 13:10:51;;;;;;;9.75;5.88;;;21.40;54.60;;;;;;5011291;28;20034;-63
2021/03/26 13:13:57;;;;;;;10.40;4.80;;;21.60;55.10;;;;;;5012441;28;20121;-63
2021/03/26 13:16:26;;;;;;;11.07;4.90;;;20.20;59.00;;;;;;5012309;28;20034;-63
2021/03/26 13:18:58;;;;;;;7.47;4.97;;;19.80;59.00;;;;;;5012438;28;20383;-63
2021/03/26 13:21:45;;;;;;;10.00;4.68;;;20.60;56.70;;;;;;4994663;28;20034;-63
2021/03/26 13:24:52;;;;;;;9.82;4.57;;;20.30;56.70;;;;;;4995537;28;20037;-63
2021/03/26 13:27:37;;;;;;;7.97;4.78;;;21.80;53.50;;;;;;4986490;28;20045;-63
2021/03/26 13:30:17;;;;;;;9.00;4.80;;;20.90;55.70;;;;;;4996473;28;20185;-64
2021/03/26 13:33:24;;;;;;;11.38;4.57;;;20.80;54.80;;;;;;4994385;28;20030;-64
2021/03/26 13:36:07;;;;;;;9.82;5.60;;;20.70;56.00;;;;;;5011083;28;20080;-64
2021/03/26 13:38:33;;;;;;;9.95;5.03;;;20.20;55.60;;;;;;4994617;28;20482;-65
2021/03/26 13:41:02;;;;;;;9.68;4.97;;;19.70;57.20;;;;;;5010048;28;20566;-64
2021/03/26 13:43:37;;;;;;;11.35;5.57;;;19.20;59.10;;;;;;4975471;28;20532;-64
2021/03/26 13:46:13;;;;;;;10.98;5.90;;;18.90;60.80;;;;;;4994743;28;20439;-65
2021/03/26 13:48:42;;;;;;;10.50;5.30;;;18.40;61.90;;;;;;4987776;28;20040;-64
2021/03/26 13:51:14;;;;;;;7.55;4.32;;;18.90;61.90;;;;;;5035256;28;20025;-64
2021/03/26 13:54:36;;;;;;;10.10;4.38;;;19.60;60.80;;;;;;4995801;28;20037;-63
2021/03/26 13:57:16;;;;;;;8.95;4.65;;;20.50;56.90;;;;;;4988894;28;20042;-64
2021/03/26 13:59:56;;;;;;;9.20;4.57;;;20.70;55.30;;;;;;5007197;28;20464;-62
2021/03/26 14:02:32;;;;;;;6.95;4.03;;;20.30;56.30;;;;;;4997040;28;20317;-63
2021/03/26 14:05:14;;;;;;;7.35;4.68;;;20.40;56.10;;;;;;4997051;28;20109;-63
2021/03/26 14:07:44;;;;;;;8.35;4.25;;;20.90;54.90;;;;;;5014973;28;20045;-62
2021/03/26 14:10:48;;;;;;;12.13;4.50;;;21.40;53.10;;;;;;4980135;28;20042;-63
2021/03/26 14:13:20;;;;;;;7.70;4.05;;;21.00;52.40;;;;;;5001305;28;20540;-63
2021/03/26 14:15:58;;;;;;;7.45;4.45;;;20.40;53.50;;;;;;4994079;28;20022;-64